Fort Dodge Regional Airport Fort Dodge US
ICAO: KFOD
IATA: FOD
Category: Medium
Scheduled Services: Yes

Elevation: 1156 ft
TransAlt. 18000 ft.

Airport Communications:
AWOS 3:118.775
MINNEAPOLIS CNTR:134
RDO:122.3
CTAF/UNICOM:122.95

KFOD Zoom In..

If you have problems with the map follow the link
https://www.worldairports.se/pages/airport.php?
ICAO=KFOD

Runways:

(A) RW 06 length 6547 ft width 150 ft
ILS 109.10 / hdg 63

(B) RW 12 length 5301 ft width 100 ft
---- / hdg 125

(C) RW 24 length 6547 ft width 150 ft
---- / hdg 243

(D) RW 30 length 5301 ft width 100 ft
---- / hdg 305

Location; KFOD
Day. 19 / Time. 12.56 Zulu
* Altimeter: 30.01
* Temperature: -07° c. -19.4°f.
* Wind from: 270° Speed 04 kn.
Dewpoint: -08° c.
Visibility: 10 Statute Miles.
Clouds: Clear (automated report).

KFOD 191256Z AUTO 27004KT 10SM CLR M07/M08 A3001 RMK AO2 SLP208 T10671083 FZRANO


Wind From 270°
Speed 04 kn.

 
 
jpsmedia.com for Web Design worldairports.se 2018   terms of use